• pl
  • eng

Awiacja
Kliknij na pogrubioną czerwoną nazwę, aby odkodować depeszę. 10:31 25.03.2017
  • WIND
  • SIGNIFICANT EURO
  • SIGNIFICANT
  • SIGMET
  • AIRMET
  • TAF FC
  • TAF FT
  • METAR GG30
  • METAR GG00


METAR EPBY 250930Z 29013KT CAVOK 07/M03 Q1024 =

METAR EPGD 250930Z 28015KT 9999 BKN012 04/01 Q1023 =

METAR EPKK 250930Z 23011KT 7000 NSC 08/02 Q1026 =

METAR EPKT 250930Z 29011KT CAVOK 09/M03 Q1026 =

METAR EPLB 250930Z 27004KT 210V330 CAVOK 07/02 Q1023 =

METAR EPLL 250930Z 28014KT CAVOK 07/M09 Q1025 =

METAR EPMO 250930Z 26013KT CAVOK 09/M01 Q1023 =

METAR EPPO 250930Z 30014KT CAVOK 09/M03 Q1026 =

METAR EPRA 250930Z 30009KT CAVOK 08/M02 Q1024=

METAR EPRZ 250930Z 26009KT CAVOK 09/02 Q1025 =

METAR EPSC 250930Z 30013KT CAVOK 07/01 Q1027 =

METAR EPSY 250930Z 28012KT 250V310 CAVOK 08/M05 Q1021=

METAR EPWA 250930Z 28011KT 240V310 CAVOK 09/M01 Q1023 NOSIG=

METAR EPWR 250930Z 30014KT CAVOK 10/M00 Q1028 =

METAR EPZG 250930Z 27011KT 240V310 CAVOK 09/M03 Q1028 =
Awiacja.imgw.pl jest pogodowym serwisem informacyjnym
Instytutu Meteorologii i Gospodarki Wodnej Państwowego Instytutu Badawczego.
Copyright IMGW PIB 2009-2011© Wszelkie prawa zastrzeżone.